Main page
METAR-TAF:

METAR-TAF

Airports :

Jaipur International Airport

Jaipur, India

latitude: 26-49N, longitude: 075-48E, elevation: 385 m

Current weather observation

The report was made 38 minutes ago, at 03:00 UTC
Wind 9 kt from the East/Northeast
Temperature 24°C
Humidity 94%
Pressure
Visibility: 0600 m
Broken clouds at a height of 1500 ft
Overcast at a height of 8000 ft
drizzle

METAR: VIJP 230300Z 06009KT 0600 R27/0800 DZ BKN015 OVC080 24/23 NOSIG

Time: 09:08 (03:38 UTC)

Forecast

The report was made 4 hours and 38 minutes ago, at 23:00 UTC
Forecast valid from 23 at 00 UTC to 24 at 06 UTC
Wind 8 kt from the Northeast
Visibility: 1500 m
Scattered clouds at a height of 1500 ft
Broken clouds at a height of 2500 ft
Overcast at a height of 8000 ft
light rain

TAF: VIJP 222300Z 2300/2406 05008KT 1500 -RA SCT015 BKN025 OVC080

Weather observations and forecasts of more than 4000 airports (METAR and TAF reports).

The available stations are represented by yellow and red dots on the map.

Hover mouse over dot to see the name of the station.

Then click to see weather observations and forecasts.

To change the map : click on the green buttons with a black cross to zoom in, on the green button with a dash to zoom out, or on the green arrows for adjacent maps.


METAR-TAF: